Time;durP1;ratioP1;P1;durP2;ratioP2;P2;SDS_P1;SDS_P2;PMS_P1;PMS_P2;Temp;Humidity;BMP_temperature;BMP_pressure;BME280_temperature;BME280_humidity;BME280_pressure;Samples;Min_cycle;Max_cycle;Signal;HPM_P1;HPM_P2
2023/07/11 00:00:06;;;;;;;4.30;1.70;;;;;;;17.97;83.72;101722.53;5097266;28;20247;-82
2023/07/11 00:02:31;;;;;;;3.07;1.80;;;;;;;17.95;83.45;101719.09;5078361;28;20040;-82
2023/07/11 00:04:58;;;;;;;4.03;1.65;;;;;;;17.95;83.80;101720.88;5096722;28;20302;-82
2023/07/11 00:07:24;;;;;;;3.00;1.60;;;;;;;17.96;84.20;101714.66;5095345;28;20211;-82
2023/07/11 00:09:49;;;;;;;4.40;1.83;;;;;;;17.96;84.27;101712.84;5096405;28;20058;-82
2023/07/11 00:12:16;;;;;;;3.78;1.83;;;;;;;17.96;84.46;101710.19;5096353;28;20048;-82
2023/07/11 00:14:43;;;;;;;7.95;2.40;;;;;;;17.96;84.39;101710.19;5097163;28;20222;-82
2023/07/11 00:17:08;;;;;;;2.22;1.70;;;;;;;17.96;84.87;101698.75;5096665;28;20028;-82
2023/07/11 00:20:04;;;;;;;7.47;2.25;;;;;;;17.96;84.65;101699.59;5096657;28;20040;-82
2023/07/11 00:22:31;;;;;;;2.83;2.05;;;;;;;17.97;84.96;101703.97;5081671;28;20054;-82
2023/07/11 00:24:56;;;;;;;4.18;1.90;;;;;;;17.97;85.04;101697.81;5094535;28;20123;-82
2023/07/11 00:27:23;;;;;;;2.40;1.85;;;;;;;17.97;85.61;101701.31;5078524;28;20358;-82
2023/07/11 00:29:49;;;;;;;1.83;1.70;;;;;;;17.96;85.81;101689.00;5096029;28;20111;-82
2023/07/11 00:32:15;;;;;;;2.20;1.85;;;;;;;17.94;85.89;101695.34;5089265;28;20032;-82
2023/07/11 00:34:40;;;;;;;5.50;2.65;;;;;;;17.93;86.16;101688.31;5092357;28;20127;-82
2023/07/11 00:37:07;;;;;;;2.53;2.13;;;;;;;17.91;86.44;101683.13;5095901;28;20268;-82
2023/07/11 00:39:34;;;;;;;3.42;2.00;;;;;;;17.90;86.77;101685.84;5074458;28;20368;-82
2023/07/11 00:42:00;;;;;;;3.97;2.15;;;;;;;17.89;86.53;101678.84;5096086;28;20051;-82
2023/07/11 00:44:25;;;;;;;5.22;2.00;;;;;;;17.88;86.65;101677.97;5095790;28;20350;-82
2023/07/11 00:46:51;;;;;;;2.95;2.00;;;;;;;17.86;86.73;101674.56;5096557;28;20036;-82
2023/07/11 00:49:20;;;;;;;6.72;2.20;;;;;;;17.84;86.68;101677.31;5096171;28;20370;-82
2023/07/11 00:51:57;;;;;;;5.03;2.17;;;;;;;17.83;86.94;101675.59;5088227;28;20036;-82
2023/07/11 00:54:28;;;;;;;5.78;1.90;;;;;;;17.82;86.74;101670.38;5090841;28;20253;-82
2023/07/11 00:56:56;;;;;;;5.00;1.80;;;;;;;17.80;86.76;101659.84;5095961;28;20052;-82
2023/07/11 00:59:22;;;;;;;3.43;2.17;;;;;;;17.78;86.88;101663.56;5090741;28;20092;-82
2023/07/11 01:04:28;;;;;;;3.83;1.88;;;;;;;17.76;87.58;101650.38;5404552;22;20249;-86
2023/07/11 01:06:54;;;;;;;3.33;1.70;;;;;;;17.76;87.65;101649.53;5078246;28;20043;-86
2023/07/11 01:09:19;;;;;;;2.83;1.73;;;;;;;17.75;87.81;101645.16;5090026;28;20028;-86
2023/07/11 01:11:53;;;;;;;3.38;1.75;;;;;;;17.71;87.96;101639.19;5077718;28;20051;-86
2023/07/11 01:14:19;;;;;;;3.70;1.70;;;;;;;17.69;88.10;101638.44;5077081;28;20031;-86
2023/07/11 01:16:44;;;;;;;3.25;2.08;;;;;;;17.68;88.10;101634.06;5096079;28;20361;-86
2023/07/11 01:19:10;;;;;;;2.50;1.80;;;;;;;17.65;87.97;101628.97;5086652;28;20307;-86
2023/07/11 01:21:35;;;;;;;3.65;2.08;;;;;;;17.63;88.19;101633.50;5084543;28;20059;-86
2023/07/11 01:24:01;;;;;;;2.78;1.70;;;;;;;17.62;88.00;101632.63;5095208;28;20040;-86
2023/07/11 01:26:26;;;;;;;3.88;1.63;;;;;;;17.60;88.45;101623.09;5095618;28;20140;-86
2023/07/11 01:28:51;;;;;;;4.50;2.20;;;;;;;17.58;88.88;101620.50;5094200;28;20114;-86
2023/07/11 01:31:17;;;;;;;3.42;2.13;;;;;;;17.57;88.62;101610.88;5095372;28;20028;-85
2023/07/11 01:33:42;;;;;;;3.30;1.98;;;;;;;17.56;88.94;101614.47;5095633;28;20039;-86
2023/07/11 01:36:07;;;;;;;3.47;1.83;;;;;;;17.55;88.99;101602.16;5095564;28;20354;-86
2023/07/11 01:38:33;;;;;;;2.70;1.80;;;;;;;17.54;89.41;101596.97;5076881;28;20338;-86
2023/07/11 01:40:58;;;;;;;3.85;1.73;;;;;;;17.53;89.44;101589.94;5074623;28;20300;-85
2023/07/11 01:43:24;;;;;;;2.67;2.15;;;;;;;17.52;89.61;101588.22;5074841;28;20075;-86
2023/07/11 01:45:49;;;;;;;5.38;2.00;;;;;;;17.52;90.12;101585.59;5084723;28;20404;-86
2023/07/11 01:48:14;;;;;;;5.22;1.90;;;;;;;17.50;90.00;101577.75;5094949;28;20032;-86
2023/07/11 01:50:40;;;;;;;3.10;1.90;;;;;;;17.50;89.97;101568.94;5077197;28;20077;-86
2023/07/11 01:53:05;;;;;;;2.97;1.70;;;;;;;17.49;89.79;101561.94;5095264;28;20036;-86
2023/07/11 01:55:31;;;;;;;3.42;1.92;;;;;;;17.48;89.68;101557.59;5094579;28;20020;-86
2023/07/11 01:57:56;;;;;;;5.03;2.35;;;;;;;17.47;89.14;101559.38;5077019;28;20027;-86
2023/07/11 02:00:21;;;;;;;4.55;2.10;;;;;;;17.46;88.91;101555.91;5093492;28;20034;-86
2023/07/11 02:02:47;;;;;;;3.85;2.00;;;;;;;17.44;88.26;101549.84;5077017;28;20028;-85
2023/07/11 02:05:15;;;;;;;3.83;2.00;;;;;;;17.45;88.11;101553.34;5094465;28;20052;-86
2023/07/11 02:07:41;;;;;;;2.95;1.90;;;;;;;17.45;88.24;101542.75;5095429;28;20054;-86
2023/07/11 02:10:08;;;;;;;2.00;1.80;;;;;;;17.45;87.83;101542.75;5094729;28;20064;-83
2023/07/11 02:12:33;;;;;;;2.97;1.70;;;;;;;17.43;87.46;101548.13;5076276;28;20092;-83
2023/07/11 02:14:59;;;;;;;4.07;1.88;;;;;;;17.43;87.39;101540.19;5094422;28;20035;-83
2023/07/11 02:17:25;;;;;;;4.65;1.90;;;;;;;17.41;87.60;101534.13;5094621;28;20028;-83
2023/07/11 02:19:51;;;;;;;6.32;1.80;;;;;;;17.40;86.77;101539.50;5095538;28;20320;-83
2023/07/11 02:22:16;;;;;;;2.90;1.60;;;;;;;17.36;86.77;101525.59;5095329;28;20047;-82
2023/07/11 02:24:42;;;;;;;6.25;1.90;;;;;;;17.35;86.60;101526.53;5095181;28;20222;-82
2023/07/11 02:27:08;;;;;;;2.38;1.50;;;;;;;17.32;86.32;101524.06;5076094;28;20056;-82
2023/07/11 02:29:33;;;;;;;2.72;1.75;;;;;;;17.32;86.70;101523.19;5089758;28;20043;-82
2023/07/11 02:31:59;;;;;;;3.38;2.05;;;;;;;17.29;86.53;101518.94;5074359;28;20036;-82
2023/07/11 02:34:25;;;;;;;3.33;2.05;;;;;;;17.29;86.65;101512.81;5065771;28;20036;-83
2023/07/11 02:36:51;;;;;;;6.22;1.80;;;;;;;17.27;86.87;101510.25;5076216;28;20253;-83
2023/07/11 02:39:17;;;;;;;4.55;1.83;;;;;;;17.25;86.78;101505.03;5094687;28;20036;-83
2023/07/11 02:41:42;;;;;;;3.97;1.92;;;;;;;17.25;86.89;101507.69;5076732;28;20230;-83
2023/07/11 02:44:08;;;;;;;2.92;1.83;;;;;;;17.24;86.80;101502.47;5076268;28;20251;-83
2023/07/11 02:46:34;;;;;;;2.67;1.70;;;;;;;17.22;86.36;101496.41;5094165;28;20381;-83
2023/07/11 02:48:59;;;;;;;2.80;1.63;;;;;;;17.21;85.92;101497.38;5094373;28;20036;-83
2023/07/11 02:51:25;;;;;;;2.75;1.60;;;;;;;17.20;85.72;101490.38;5076280;28;20039;-83
2023/07/11 02:53:51;;;;;;;2.10;1.65;;;;;;;17.19;85.89;101491.28;5076406;28;20070;-83
2023/07/11 02:56:18;;;;;;;4.45;1.63;;;;;;;17.18;84.90;101489.59;5075547;28;20016;-83
2023/07/11 02:58:44;;;;;;;2.65;1.60;;;;;;;17.17;84.93;101487.88;5095016;28;20043;-83
2023/07/11 03:01:10;;;;;;;4.78;1.85;;;;;;;17.14;84.69;101486.28;5064936;28;20044;-83
2023/07/11 03:03:36;;;;;;;1.70;1.38;;;;;;;17.14;84.45;101485.44;5077313;28;20098;-83
2023/07/11 03:06:02;;;;;;;3.38;1.60;;;;;;;17.11;83.82;101481.16;5055233;28;20222;-83
2023/07/11 03:08:27;;;;;;;1.90;1.45;;;;;;;17.10;84.07;101478.59;5060060;28;20270;-83
2023/07/11 03:10:57;;;;;;;2.80;1.52;;;;;;;17.10;83.81;101475.94;5059546;28;20028;-83
2023/07/11 03:13:22;;;;;;;2.20;1.70;;;;;;;17.06;83.66;101472.63;5059265;28;20199;-83
2023/07/11 03:15:48;;;;;;;1.45;1.35;;;;;;;17.05;83.75;101473.59;5071609;28;20612;-83
2023/07/11 03:18:13;;;;;;;3.85;1.83;;;;;;;17.04;84.01;101470.06;5058258;28;20037;-83
2023/07/11 03:20:40;;;;;;;3.63;1.58;;;;;;;17.04;83.92;101466.59;5057794;28;20140;-83
2023/07/11 03:23:07;;;;;;;4.20;1.58;;;;;;;17.04;84.22;101470.06;5057035;28;20046;-83
2023/07/11 03:25:33;;;;;;;3.00;1.63;;;;;;;17.04;84.29;101466.59;5062149;28;20029;-83
2023/07/11 03:27:58;;;;;;;3.03;2.05;;;;;;;17.04;84.59;101463.94;5077774;28;20352;-83
2023/07/11 03:30:23;;;;;;;3.30;1.55;;;;;;;17.04;84.61;101464.78;5076009;28;20112;-83
2023/07/11 03:32:49;;;;;;;4.75;1.85;;;;;;;17.03;84.46;101457.78;5075984;28;20027;-83
2023/07/11 03:35:14;;;;;;;4.90;1.77;;;;;;;17.03;84.57;101454.31;5076651;28;20032;-83
2023/07/11 03:37:39;;;;;;;2.17;1.48;;;;;;;17.00;84.32;101447.38;5057765;28;20103;-83
2023/07/11 03:40:05;;;;;;;3.13;2.05;;;;;;;17.01;84.76;101451.75;5050405;28;20039;-83
2023/07/11 03:42:31;;;;;;;2.38;1.40;;;;;;;16.99;85.41;101448.34;5059296;28;20039;-83
2023/07/11 03:44:56;;;;;;;1.92;1.58;;;;;;;17.00;85.41;101438.59;5077133;28;20100;-83
2023/07/11 03:47:23;;;;;;;3.97;1.70;;;;;;;16.97;84.74;101437.00;5058002;28;20048;-83
2023/07/11 03:49:48;;;;;;;3.33;1.70;;;;;;;16.95;84.75;101430.91;5057117;28;20043;-83
2023/07/11 03:52:14;;;;;;;3.40;1.67;;;;;;;16.95;85.31;101430.06;5057783;28;20029;-83
2023/07/11 03:54:39;;;;;;;3.13;1.50;;;;;;;16.94;85.20;101423.94;5057233;28;20252;-83
2023/07/11 03:57:05;;;;;;;4.60;1.67;;;;;;;16.93;84.90;101422.22;5056866;28;20394;-83
2023/07/11 03:59:31;;;;;;;1.77;1.38;;;;;;;16.93;85.18;101421.38;5039329;28;20036;-83
2023/07/11 04:01:56;;;;;;;3.45;1.38;;;;;;;16.92;85.29;101420.53;5070787;28;20036;-83
2023/07/11 04:04:22;;;;;;;1.85;1.30;;;;;;;16.92;85.23;101419.66;5068037;28;20047;-83
2023/07/11 04:06:47;;;;;;;3.00;1.38;;;;;;;16.92;84.83;101414.38;5078446;28;20052;-83
2023/07/11 04:09:12;;;;;;;2.45;1.25;;;;;;;16.92;84.59;101411.72;5079253;28;20085;-83
2023/07/11 04:11:38;;;;;;;3.22;1.77;;;;;;;16.94;84.25;101421.28;5096186;28;20074;-83
2023/07/11 04:14:03;;;;;;;1.83;1.40;;;;;;;16.95;84.04;101414.19;5096819;28;20043;-83
2023/07/11 04:16:29;;;;;;;2.25;1.25;;;;;;;16.96;83.63;101411.47;5096607;28;20095;-83
2023/07/11 04:18:54;;;;;;;2.97;1.45;;;;;;;16.98;83.43;101399.00;5096816;28;20059;-83
2023/07/11 04:21:19;;;;;;;5.28;1.50;;;;;;;16.99;83.21;101403.38;5078312;28;20283;-83
2023/07/11 04:23:46;;;;;;;2.35;1.40;;;;;;;17.00;83.46;101393.63;5096648;28;20365;-83
2023/07/11 04:26:12;;;;;;;1.80;1.33;;;;;;;16.99;82.66;101392.78;5096600;28;20091;-83
2023/07/11 04:28:37;;;;;;;2.08;1.40;;;;;;;17.01;82.55;101396.19;5096598;28;20099;-83
2023/07/11 04:31:03;;;;;;;2.55;1.40;;;;;;;17.02;82.73;101400.50;5096289;28;20231;-83
2023/07/11 04:33:28;;;;;;;2.10;1.20;;;;;;;17.03;82.83;101396.94;5096601;28;20062;-83
2023/07/11 04:35:53;;;;;;;3.33;1.30;;;;;;;17.03;82.82;101394.28;5096790;28;20342;-83
2023/07/11 04:38:19;;;;;;;2.35;1.33;;;;;;;17.06;82.56;101391.47;5096571;28;20034;-83
2023/07/11 04:40:46;;;;;;;2.50;1.23;;;;;;;17.07;82.37;101382.56;5113969;28;20047;-83
2023/07/11 04:43:12;;;;;;;2.20;1.48;;;;;;;17.10;82.48;101383.34;5078038;28;20042;-83
2023/07/11 04:45:37;;;;;;;4.55;1.50;;;;;;;17.12;82.56;101382.31;5096663;28;20040;-83
2023/07/11 04:48:03;;;;;;;2.53;1.67;;;;;;;17.13;82.53;101375.22;5096179;28;20420;-83
2023/07/11 04:50:29;;;;;;;2.42;1.65;;;;;;;17.16;82.59;101381.19;5096261;28;20339;-83
2023/07/11 04:52:54;;;;;;;2.33;1.60;;;;;;;17.17;82.65;101382.03;5077768;28;20234;-83
2023/07/11 04:55:20;;;;;;;1.98;1.33;;;;;;;17.18;82.59;101375.81;5096211;28;20043;-83
2023/07/11 04:57:45;;;;;;;2.20;1.48;;;;;;;17.20;82.51;101373.91;5078005;28;20032;-83
2023/07/11 05:00:11;;;;;;;2.50;1.60;;;;;;;17.21;82.59;101363.25;5095936;28;20352;-83
2023/07/11 05:02:37;;;;;;;4.85;2.05;;;;;;;17.22;82.92;101364.91;5095694;28;20067;-83
2023/07/11 05:05:03;;;;;;;2.33;1.88;;;;;;;17.25;83.15;101361.25;5095875;28;20361;-83
2023/07/11 05:07:28;;;;;;;5.75;2.08;;;;;;;17.26;82.95;101352.34;5091725;28;20235;-83
2023/07/11 05:09:54;;;;;;;3.05;2.08;;;;;;;17.27;83.14;101349.63;5095747;28;20425;-83
2023/07/11 05:12:19;;;;;;;1.70;1.52;;;;;;;17.30;82.91;101351.25;5095681;28;20028;-83
2023/07/11 05:14:45;;;;;;;4.78;1.92;;;;;;;17.33;82.83;101345.75;5096321;28;20043;-83
2023/07/11 05:17:10;;;;;;;4.18;1.70;;;;;;;17.36;83.04;101347.38;5101028;28;20095;-83
2023/07/11 05:19:35;;;;;;;4.10;1.63;;;;;;;17.38;82.72;101341.03;5106499;28;20100;-83
2023/07/11 05:22:01;;;;;;;4.38;1.48;;;;;;;17.41;82.85;101335.56;5094749;28;20036;-83
2023/07/11 05:24:26;;;;;;;2.03;1.45;;;;;;;17.44;82.83;101335.38;5105070;28;20031;-83
2023/07/11 05:26:52;;;;;;;2.17;1.50;;;;;;;17.48;82.28;101325.41;5103530;28;20360;-83
2023/07/11 05:29:17;;;;;;;1.75;1.15;;;;;;;17.53;82.22;101327.78;5098513;28;20062;-82
2023/07/11 05:31:43;;;;;;;1.77;1.30;;;;;;;17.56;81.71;101319.66;5106679;28;20042;-82
2023/07/11 05:34:10;;;;;;;1.30;1.20;;;;;;;17.59;81.52;101319.44;5102043;28;20038;-82
2023/07/11 05:36:36;;;;;;;2.88;1.65;;;;;;;17.62;81.63;101311.31;5102003;28;20032;-83
2023/07/11 05:39:06;;;;;;;2.75;1.05;;;;;;;17.66;81.57;101312.81;5102099;28;20296;-83
2023/07/11 05:41:33;;;;;;;1.95;1.17;;;;;;;17.71;81.42;101313.38;5093256;28;20044;-83
2023/07/11 05:43:59;;;;;;;2.42;1.25;;;;;;;17.75;81.13;101311.41;5081224;28;20023;-83
2023/07/11 05:46:25;;;;;;;0.90;0.90;;;;;;;17.78;80.99;101312.06;5101817;28;20146;-83
2023/07/11 05:48:53;;;;;;;1.85;1.40;;;;;;;17.81;80.89;101306.56;5099636;28;20059;-83
2023/07/11 05:51:19;;;;;;;5.90;1.90;;;;;;;17.84;81.04;101308.16;5103443;28;20046;-83
2023/07/11 05:53:45;;;;;;;2.22;1.45;;;;;;;17.86;81.06;101303.63;5095242;28;20211;-83
2023/07/11 05:56:11;;;;;;;2.97;1.90;;;;;;;17.88;80.96;101301.75;5076695;28;20016;-83
2023/07/11 05:58:37;;;;;;;2.25;1.10;;;;;;;17.92;80.87;101308.56;5080974;28;20055;-83
2023/07/11 06:01:03;;;;;;;1.63;1.40;;;;;;;17.94;81.01;101300.53;5103998;28;20264;-83
2023/07/11 06:03:30;;;;;;;5.25;1.60;;;;;;;17.96;80.80;101295.97;5106117;28;20210;-83
2023/07/11 06:06:05;;;;;;;2.22;1.85;;;;;;;17.99;80.82;101293.09;5104427;28;20399;-83
2023/07/11 06:08:31;;;;;;;1.80;1.67;;;;;;;18.01;81.02;101291.22;5101887;28;20362;-83
2023/07/11 06:10:58;;;;;;;3.63;2.03;;;;;;;18.03;81.34;101290.16;5085665;28;20023;-83
2023/07/11 06:13:25;;;;;;;2.53;1.73;;;;;;;18.09;81.36;101291.56;5103534;28;20266;-83
2023/07/11 06:16:00;;;;;;;2.05;1.40;;;;;;;18.12;81.21;101291.38;5095716;28;20063;-83
2023/07/11 06:18:26;;;;;;;3.47;2.05;;;;;;;18.16;81.91;101290.22;5091720;28;20047;-83
2023/07/11 06:20:51;;;;;;;7.18;1.85;;;;;;;18.19;82.00;101289.16;5101797;28;20056;-83
2023/07/11 06:23:19;;;;;;;5.70;2.63;;;;;;;18.21;81.66;101288.13;5098864;28;20035;-83
2023/07/11 06:25:44;;;;;;;3.72;2.03;;;;;;;18.25;81.24;101282.63;5093944;28;20114;-83
2023/07/11 06:28:09;;;;;;;5.32;2.00;;;;;;;18.28;81.08;101285.06;5072938;28;20077;-83
2023/07/11 06:30:35;;;;;;;6.60;2.10;;;;;;;18.32;80.88;101289.19;5094291;28;20030;-84
2023/07/11 06:33:00;;;;;;;3.80;2.13;;;;;;;18.34;80.50;101277.56;5094232;28;20231;-83
2023/07/11 06:35:26;;;;;;;6.03;1.95;;;;;;;18.36;80.36;101275.66;5096513;28;20040;-83
2023/07/11 06:37:51;;;;;;;7.22;2.00;;;;;;;18.41;80.24;101280.66;5080692;28;20101;-83
2023/07/11 06:40:18;;;;;;;2.53;1.90;;;;;;;18.45;79.91;101273.34;5111937;28;20069;-84
2023/07/11 06:42:43;;;;;;;3.08;1.92;;;;;;;18.48;79.90;101276.66;5111417;28;20044;-84
2023/07/11 06:45:09;;;;;;;2.08;1.77;;;;;;;18.53;79.71;101273.66;5092618;28;20443;-84
2023/07/11 06:47:34;;;;;;;3.05;1.83;;;;;;;18.57;79.76;101269.84;5097608;28;20035;-83
2023/07/11 06:49:59;;;;;;;2.63;1.83;;;;;;;18.60;79.50;101273.13;5106683;28;20354;-84
2023/07/11 06:52:25;;;;;;;2.17;1.55;;;;;;;18.65;79.38;101278.16;5106644;28;20073;-83
2023/07/11 06:54:50;;;;;;;7.18;2.25;;;;;;;18.70;78.44;101270.72;5097865;28;20079;-83
2023/07/11 06:57:17;;;;;;;2.13;1.58;;;;;;;18.75;78.35;101278.34;5103679;28;20031;-83
2023/07/11 06:59:42;;;;;;;3.45;2.00;;;;;;;18.80;78.67;101278.91;5083994;28;20040;-84
2023/07/11 07:02:09;;;;;;;2.25;1.70;;;;;;;18.85;78.47;101279.47;5100609;28;20036;-84
2023/07/11 07:04:35;;;;;;;6.57;2.40;;;;;;;18.92;77.97;101279.91;5079486;28;20101;-84
2023/07/11 07:07:00;;;;;;;5.00;2.50;;;;;;;18.95;78.46;101275.22;5084599;28;20047;-84
2023/07/11 07:09:25;;;;;;;7.00;2.17;;;;;;;19.01;78.29;101273.09;5088649;28;20035;-84
2023/07/11 07:11:51;;;;;;;2.13;1.70;;;;;;;19.05;78.24;101274.59;5073280;28;20095;-83
2023/07/11 07:14:18;;;;;;;5.38;2.00;;;;;;;19.10;78.09;101275.97;5096581;28;20036;-84
2023/07/11 07:16:43;;;;;;;2.28;1.70;;;;;;;19.16;78.31;101278.19;5098041;28;20028;-84
2023/07/11 07:19:11;;;;;;;4.85;1.95;;;;;;;19.21;78.05;101282.31;5099008;28;20081;-84
2023/07/11 07:21:36;;;;;;;4.18;1.73;;;;;;;19.26;77.99;101275.72;5077780;28;20131;-84
2023/07/11 07:24:01;;;;;;;3.42;2.03;;;;;;;19.31;77.80;101275.41;5096073;28;20040;-84
2023/07/11 07:26:27;;;;;;;3.30;1.90;;;;;;;19.37;77.86;101275.84;5096757;28;20028;-84
2023/07/11 07:28:52;;;;;;;4.60;2.20;;;;;;;19.44;77.79;101267.44;5092778;28;20099;-84
2023/07/11 07:31:18;;;;;;;4.65;2.20;;;;;;;19.49;77.38;101267.94;5089913;28;20024;-84
2023/07/11 07:33:43;;;;;;;3.15;1.65;;;;;;;19.53;77.25;101270.25;5098002;28;20043;-84
2023/07/11 07:36:11;;;;;;;2.47;1.95;;;;;;;19.57;77.31;101273.53;5097526;28;20035;-84
2023/07/11 07:38:38;;;;;;;2.95;1.90;;;;;;;19.61;77.43;101267.06;5095797;28;20039;-84
2023/07/11 07:41:07;;;;;;;3.03;2.00;;;;;;;19.63;77.57;101273.13;5092568;28;20048;-83
2023/07/11 07:43:33;;;;;;;4.30;2.15;;;;;;;19.64;77.22;101268.66;5072588;28;20043;-84
2023/07/11 07:46:00;;;;;;;3.83;1.88;;;;;;;19.65;77.23;101268.53;5093106;28;20070;-84
2023/07/11 07:48:27;;;;;;;8.07;2.78;;;;;;;19.69;77.65;101254.06;5096035;28;20107;-84
2023/07/11 07:51:07;;;;;;;5.68;1.95;;;;;;;19.78;77.14;101267.69;5094190;28;20086;-84
2023/07/11 07:53:33;;;;;;;6.18;2.30;;;;;;;19.86;77.14;101265.31;5096266;28;20330;-84
2023/07/11 07:56:07;;;;;;;4.45;1.92;;;;;;;19.93;76.92;101259.44;5095899;28;20081;-83
2023/07/11 07:58:33;;;;;;;13.35;2.10;;;;;;;19.99;76.64;101260.78;5093433;28;20069;-83
2023/07/11 08:00:59;;;;;;;11.40;1.70;;;;;;;20.05;75.92;101256.84;5088229;28;20044;-84
2023/07/11 08:03:24;;;;;;;4.03;2.40;;;;;;;20.10;75.82;101255.53;5090151;28;20100;-84
2023/07/11 08:05:53;;;;;;;3.50;2.38;;;;;;;20.19;75.11;101261.13;5088422;28;20419;-83
2023/07/11 08:08:19;;;;;;;7.10;2.00;;;;;;;20.25;74.94;101253.53;5094851;28;20047;-83
2023/07/11 08:10:44;;;;;;;3.00;1.80;;;;;;;20.33;75.40;101258.28;5097205;28;20253;-84
2023/07/11 08:13:10;;;;;;;3.90;1.75;;;;;;;20.39;74.83;101272.91;5093359;28;20040;-83
2023/07/11 08:15:35;;;;;;;11.75;2.58;;;;;;;20.46;74.65;101258.19;5094240;28;20043;-83
2023/07/11 08:18:01;;;;;;;3.53;1.70;;;;;;;20.52;73.98;101255.94;5095369;28;20304;-84
2023/07/11 08:20:26;;;;;;;4.30;1.98;;;;;;;20.56;74.48;101245.91;5095178;28;20031;-84
2023/07/11 08:22:52;;;;;;;7.90;2.00;;;;;;;20.61;74.34;101254.41;5095630;28;20094;-83
2023/07/11 08:25:17;;;;;;;6.43;2.13;;;;;;;20.67;74.10;101245.13;5076283;28;20035;-83
2023/07/11 08:27:43;;;;;;;7.00;2.75;;;;;;;20.71;74.05;101243.91;5095627;28;20036;-83
2023/07/11 08:30:09;;;;;;;9.90;2.20;;;;;;;20.76;73.85;101248.88;5090441;28;20063;-84
2023/07/11 08:32:34;;;;;;;4.75;2.28;;;;;;;20.79;73.46;101249.50;5092744;28;20374;-83
2023/07/11 08:35:00;;;;;;;7.15;2.80;;;;;;;20.82;73.17;101246.56;5093459;28;20072;-83
2023/07/11 08:37:26;;;;;;;4.22;2.20;;;;;;;20.86;73.69;101255.16;5088767;28;20033;-84
2023/07/11 08:39:51;;;;;;;7.60;2.00;;;;;;;20.90;73.58;101245.97;5089230;28;20391;-84
2023/07/11 08:42:23;;;;;;;3.90;2.00;;;;;;;20.95;73.65;101253.63;5098389;28;20119;-84
2023/07/11 08:44:59;;;;;;;4.07;2.00;;;;;;;20.98;73.50;101248.91;5092219;28;20035;-84
2023/07/11 08:47:36;;;;;;;3.80;1.70;;;;;;;21.03;72.93;101244.06;5097911;28;20144;-83
2023/07/11 08:50:11;;;;;;;3.72;1.90;;;;;;;21.08;72.26;101247.22;5094267;28;20040;-84
2023/07/11 08:52:37;;;;;;;4.30;1.60;;;;;;;21.14;72.10;101245.00;5095473;28;20024;-84
2023/07/11 08:55:30;;;;;;;5.47;1.52;;;;;;;21.17;71.64;101247.44;5077396;28;20030;-83
2023/07/11 08:58:22;;;;;;;3.90;1.70;;;;;;;21.23;72.08;101253.13;5092394;28;20084;-84
2023/07/11 09:00:50;;;;;;;5.45;1.90;;;;;;;21.32;71.54;101242.72;5074198;28;20053;-84
2023/07/11 09:03:29;;;;;;;7.22;2.40;;;;;;;21.37;71.18;101241.38;5098493;28;20039;-84
2023/07/11 09:06:06;;;;;;;7.68;2.00;;;;;;;21.42;71.12;101241.84;5090994;28;20234;-84
2023/07/11 09:08:35;;;;;;;7.50;2.00;;;;;;;21.46;71.48;101239.81;5090925;28;20039;-84
2023/07/11 09:11:03;;;;;;;;;;;;;;;21.49;71.14;101244.91;5095623;28;20031;-83
2023/07/11 09:13:45;;;;;;;9.77;1.98;;;;;;;21.51;71.33;101239.47;5077841;28;19922;-83
2023/07/11 09:16:36;;;;;;;4.97;1.60;;;;;;;21.53;71.04;101237.53;5075024;28;20352;-83
2023/07/11 09:19:29;;;;;;;7.55;2.05;;;;;;;21.57;70.88;101244.28;5092524;28;20098;-84
2023/07/11 09:22:04;;;;;;;7.65;2.10;;;;;;;21.62;70.54;101232.28;5093902;28;20062;-83
2023/07/11 09:24:39;;;;;;;7.50;1.90;;;;;;;21.66;70.62;101235.53;5093866;28;20040;-83
2023/07/11 09:27:27;;;;;;;7.20;2.03;;;;;;;21.72;71.03;101232.41;5092807;28;20028;-84
2023/07/11 09:29:54;;;;;;;6.60;1.90;;;;;;;21.79;70.71;101240.72;5086898;28;20043;-83
2023/07/11 09:32:20;;;;;;;3.55;1.75;;;;;;;21.81;70.82;101228.09;5093488;28;20035;-83
2023/07/11 09:34:49;;;;;;;4.40;2.03;;;;;;;21.81;71.39;101231.63;5096069;28;20042;-84
2023/07/11 09:37:27;;;;;;;2.25;1.80;;;;;;;21.81;71.23;101234.31;5093737;28;20095;-84
2023/07/11 09:40:03;;;;;;;2.38;1.50;;;;;;;21.81;71.82;101236.09;5064981;28;20023;-83
2023/07/11 09:42:34;;;;;;;2.70;1.70;;;;;;;21.82;71.50;101237.81;5085842;28;20046;-83
2023/07/11 09:45:05;;;;;;;8.73;2.05;;;;;;;21.81;70.95;101239.63;5089681;28;20040;-83
2023/07/11 09:47:32;;;;;;;7.50;2.40;;;;;;;21.81;70.74;101238.78;5093814;28;20044;-84
2023/07/11 09:49:59;;;;;;;6.60;2.28;;;;;;;21.81;70.92;101241.44;5094258;28;20208;-83
2023/07/11 09:52:27;;;;;;;4.35;1.67;;;;;;;21.83;70.92;101235.03;5096058;28;20358;-83
2023/07/11 09:54:55;;;;;;;6.13;2.40;;;;;;;21.82;69.83;101241.31;5093280;28;20047;-83
2023/07/11 09:57:22;;;;;;;9.95;1.85;;;;;;;21.82;70.37;101235.16;5078290;28;20062;-83
2023/07/11 09:59:54;;;;;;;4.15;1.80;;;;;;;21.85;70.31;101224.25;5093160;28;20035;-83
2023/07/11 10:02:21;;;;;;;2.97;1.90;;;;;;;21.88;70.78;101231.97;5089425;28;20024;-84
2023/07/11 10:04:46;;;;;;;5.47;2.05;;;;;;;21.91;70.58;101242.38;5091191;28;20049;-83
2023/07/11 10:07:15;;;;;;;6.88;2.15;;;;;;;21.92;70.28;101222.75;5093833;28;20353;-83
2023/07/11 10:09:49;;;;;;;9.77;2.38;;;;;;;21.98;70.69;101218.72;5093441;28;20039;-83
2023/07/11 10:12:18;;;;;;;3.75;1.60;;;;;;;22.01;70.84;101222.00;5088499;28;20361;-83
2023/07/11 10:14:47;;;;;;;2.60;1.63;;;;;;;22.07;70.96;101215.31;5091904;28;20083;-83
2023/07/11 10:17:12;;;;;;;;;;;;;;;22.12;70.53;101217.56;5089045;28;20777;-83
2023/07/11 10:19:37;;;;;;;3.50;2.00;;;;;;;22.14;70.33;101223.63;5090906;28;20230;-84
2023/07/11 10:22:03;;;;;;;5.55;1.90;;;;;;;22.18;70.71;101219.75;5091203;28;20331;-84
2023/07/11 10:24:38;;;;;;;4.25;1.60;;;;;;;22.20;70.51;101215.94;5091722;28;20046;-84
2023/07/11 10:27:10;;;;;;;4.07;1.95;;;;;;;22.26;70.71;101216.41;5092883;28;20305;-83
2023/07/11 10:29:43;;;;;;;5.90;1.80;;;;;;;22.28;70.77;101225.16;5072958;28;20023;-83
2023/07/11 10:32:19;;;;;;;2.45;1.65;;;;;;;22.30;71.16;101223.22;5088422;28;20313;-84
2023/07/11 10:34:54;;;;;;;4.97;1.77;;;;;;;22.33;71.44;101217.63;5060524;28;20036;-84
2023/07/11 10:37:35;;;;;;;4.13;1.80;;;;;;;22.37;71.28;101216.38;5091837;28;20314;-84
2023/07/11 10:40:13;;;;;;;7.18;2.13;;;;;;;22.45;70.95;101223.72;5094744;28;20044;-84
2023/07/11 10:42:45;;;;;;;3.90;1.95;;;;;;;22.49;70.91;101219.84;5092098;28;20106;-84
2023/07/11 10:45:23;;;;;;;3.78;1.70;;;;;;;22.50;70.60;101219.69;5090228;28;20044;-84
2023/07/11 10:48:17;;;;;;;1.67;1.40;;;;;;;22.54;70.79;101217.59;5089931;28;20085;-84
2023/07/11 10:50:47;;;;;;;2.97;1.65;;;;;;;22.59;70.38;101205.59;5090161;28;20419;-84
2023/07/11 10:53:28;;;;;;;3.58;1.70;;;;;;;22.62;70.41;101207.97;5093930;28;20040;-84
2023/07/11 10:56:05;;;;;;;2.95;1.60;;;;;;;;;;5092576;28;20331;-84
2023/07/11 10:58:31;;;;;;;7.57;2.63;;;;;;;22.70;70.41;101202.00;5086749;28;20046;-83
2023/07/11 11:01:18;;;;;;;4.72;1.98;;;;;;;22.76;69.90;101200.63;5093761;28;20064;-83
2023/07/11 11:03:46;;;;;;;4.53;2.17;;;;;;;22.81;69.69;101201.91;5088648;28;20070;-84
2023/07/11 11:06:26;;;;;;;3.10;1.80;;;;;;;22.87;70.05;101205.88;5086957;28;20239;-83
2023/07/11 11:09:18;;;;;;;4.15;1.90;;;;;;;22.92;69.89;101200.09;5089494;28;20387;-84
2023/07/11 11:11:58;;;;;;;3.15;2.00;;;;;;;22.94;69.72;101196.34;5088143;28;20067;-83
2023/07/11 11:14:41;;;;;;;9.35;1.90;;;;;;;22.98;70.17;101192.41;5093943;28;20044;-84
2023/07/11 11:17:24;;;;;;;4.10;1.60;;;;;;;23.04;70.00;101193.72;5091823;28;20035;-84
2023/07/11 11:19:55;;;;;;;4.65;2.03;;;;;;;23.09;69.77;101191.50;5094136;28;20044;-84
2023/07/11 11:22:39;;;;;;;3.00;1.67;;;;;;;23.13;69.49;101195.59;5088550;28;20020;-83
2023/07/11 11:25:16;;;;;;;3.33;2.10;;;;;;;23.17;69.32;101183.63;5098028;28;20298;-84
2023/07/11 11:28:12;;;;;;;4.45;2.00;;;;;;;23.21;69.10;101180.69;5098094;28;20335;-83
2023/07/11 11:30:51;;;;;;;3.83;1.73;;;;;;;23.26;68.98;101184.66;5103182;28;20110;-83
2023/07/11 11:33:31;;;;;;;3.50;1.77;;;;;;;23.31;69.00;101187.75;5110830;28;20357;-83